Decoded Metar for KIFA ( in _UNIDENTIFIED) (IATA:N/A) | Meteo·Mobile Aviation Weather
aviador You're here:

KIFA Decoded Metar

in _UNIDENTIFIED
Report Time2019-03-19 19:15:00
UTC Time2019-03-19 19:25:05
Flight Rules vfr VFR
Wind170° at 08 kt
W.Decomp.*RWY 13: 6.2 kt HW 5.0 kt RCW
W.Rank170° ranks 8
Current wind is below 170° avg. (9.5)
Visibility9999 m
Phenomena:N/A
Clouds:N/A
Expected CloudBase > 2,800 ft AGL from Temp-Dew spread
CeilingNone
Temp09°C (ISA -4)
Dew Point02°C (62% RH)
AAT4.5°C
QNH1026 hPa
Density Alt354 ft
Elevation1,138 ft
Report Wrong Elevation
Raw Report
KIFA 191915Z AUTO 17008KT 10SM CLR 09/02 A3029 RMK AO2
T00860015=

Extra information for KIFA:More info

Metar Taf Metar & Taf Last 4 Metars F.Rules Stats Wind Profile Meteogram Temp Stats Metar ALERT Operation Metar Decoded Social comments